createdAt,value
2023-04-03T00:00:58.455Z,10.18
2023-04-03T00:03:25.515Z,9.82
2023-04-03T00:05:52.748Z,9.50
2023-04-03T00:08:19.942Z,8.30
2023-04-03T00:10:46.841Z,8.90
2023-04-03T00:13:13.990Z,9.10
2023-04-03T00:15:41.696Z,9.98
2023-04-03T00:18:08.916Z,8.98
2023-04-03T00:20:36.257Z,9.18
2023-04-03T00:23:03.618Z,10.18
2023-04-03T00:25:30.695Z,9.75
2023-04-03T00:27:57.649Z,12.68
2023-04-03T00:30:25.002Z,10.80
2023-04-03T00:32:52.983Z,10.43
2023-04-03T00:35:22.035Z,9.48
2023-04-03T00:37:51.947Z,9.98
2023-04-03T00:40:19.284Z,9.80
2023-04-03T00:42:49.150Z,9.88
2023-04-03T00:45:19.181Z,10.23
2023-04-03T00:47:46.578Z,10.68
2023-04-03T00:50:13.644Z,9.88
2023-04-03T00:52:41.108Z,9.75
2023-04-03T00:55:10.821Z,9.73
2023-04-03T00:57:38.723Z,8.77
2023-04-03T01:00:13.593Z,10.60
2023-04-03T01:02:42.179Z,11.02
2023-04-03T01:05:11.714Z,9.98
2023-04-03T01:07:39.668Z,10.23
2023-04-03T01:10:10.300Z,13.50
2023-04-03T01:12:46.897Z,10.57
2023-04-03T01:15:14.934Z,9.50
2023-04-03T01:17:51.846Z,9.25
2023-04-03T01:20:37.624Z,11.45
2023-04-03T01:23:13.267Z,9.77
2023-04-03T01:25:48.875Z,12.75
2023-04-03T01:28:22.204Z,10.70
2023-04-03T01:31:04.606Z,10.32
2023-04-03T01:33:34.273Z,11.48
2023-04-03T01:36:01.267Z,9.07
2023-04-03T01:38:29.352Z,10.55
2023-04-03T01:40:56.296Z,10.10
2023-04-03T01:43:23.784Z,10.63
2023-04-03T01:45:51.288Z,13.07
2023-04-03T01:48:18.196Z,9.50
2023-04-03T01:50:45.124Z,10.93
2023-04-03T01:53:12.128Z,10.63
2023-04-03T01:55:39.147Z,12.82
2023-04-03T01:58:06.229Z,11.25
2023-04-03T02:00:33.350Z,14.75
2023-04-03T02:03:00.564Z,10.90
2023-04-03T02:05:27.844Z,13.45
2023-04-03T02:07:54.971Z,14.32
2023-04-03T02:10:21.988Z,16.25
2023-04-03T02:12:49.045Z,20.30
2023-04-03T02:15:19.198Z,21.83
2023-04-03T02:17:46.354Z,40.15
2023-04-03T02:20:14.784Z,46.40
2023-04-03T02:22:42.058Z,50.58
2023-04-03T02:25:09.593Z,47.10
2023-04-03T02:27:36.733Z,57.63
2023-04-03T02:30:04.948Z,50.10
2023-04-03T02:32:32.710Z,48.30
2023-04-03T02:35:00.358Z,49.80
2023-04-03T02:37:28.015Z,46.78
2023-04-03T02:39:55.293Z,43.90
2023-04-03T02:42:22.745Z,35.28
2023-04-03T02:44:49.756Z,32.40
2023-04-03T02:47:17.342Z,30.75
2023-04-03T02:49:46.283Z,25.02
2023-04-03T02:52:16.544Z,25.05
2023-04-03T02:54:43.706Z,21.27
2023-04-03T02:57:11.773Z,24.08
2023-04-03T02:59:41.788Z,20.13
2023-04-03T03:02:11.199Z,18.50
2023-04-03T03:04:38.668Z,15.88
2023-04-03T03:07:05.786Z,18.10
2023-04-03T03:09:33.069Z,11.75
2023-04-03T03:12:00.040Z,12.30
2023-04-03T03:14:27.139Z,11.05
2023-04-03T03:16:54.338Z,10.32
2023-04-03T03:19:21.461Z,8.98
2023-04-03T03:21:48.950Z,10.45
2023-04-03T03:24:17.217Z,10.88
2023-04-03T03:26:44.618Z,9.18
2023-04-03T03:29:12.333Z,10.30
2023-04-03T03:31:39.552Z,12.13
2023-04-03T03:34:07.508Z,12.60
2023-04-03T03:36:34.555Z,14.32
2023-04-03T03:39:02.903Z,19.92
2023-04-03T03:41:30.039Z,19.25
2023-04-03T03:43:57.034Z,21.73
2023-04-03T03:46:24.643Z,17.23
2023-04-03T03:48:53.836Z,21.70
2023-04-03T03:51:20.868Z,25.10
2023-04-03T03:53:48.090Z,22.02
2023-04-03T03:56:18.570Z,23.17
2023-04-03T03:58:46.720Z,25.40
2023-04-03T04:01:14.567Z,29.40
2023-04-03T04:03:46.469Z,26.90
2023-04-03T04:06:18.403Z,28.13
2023-04-03T04:08:46.043Z,25.52
2023-04-03T04:11:14.849Z,24.80
2023-04-03T04:13:43.012Z,22.33
2023-04-03T04:16:12.441Z,21.58
2023-04-03T04:18:39.454Z,14.35
2023-04-03T04:21:06.590Z,13.55
2023-04-03T04:23:33.652Z,16.23
2023-04-03T04:26:01.758Z,14.65
2023-04-03T04:28:32.484Z,12.65
2023-04-03T04:31:01.152Z,9.90
2023-04-03T04:33:29.324Z,11.45
2023-04-03T04:35:58.788Z,9.02
2023-04-03T04:38:26.144Z,9.60
2023-04-03T04:40:54.375Z,11.57
2023-04-03T04:43:22.079Z,9.15
2023-04-03T04:46:04.097Z,17.00
2023-04-03T04:48:34.951Z,9.85
2023-04-03T04:51:03.146Z,10.60
2023-04-03T04:53:30.070Z,11.25
2023-04-03T04:55:57.348Z,13.32
2023-04-03T04:58:24.538Z,9.75
2023-04-03T05:01:02.716Z,9.27
2023-04-03T05:03:31.098Z,9.13
2023-04-03T05:05:58.106Z,8.55
2023-04-03T05:08:25.186Z,9.00
2023-04-03T05:10:54.230Z,8.23
2023-04-03T05:13:22.746Z,8.88
2023-04-03T05:15:49.912Z,8.45
2023-04-03T05:18:17.133Z,9.65
2023-04-03T05:20:44.653Z,9.75
2023-04-03T05:23:12.488Z,9.98
2023-04-03T05:25:40.552Z,10.55
2023-04-03T05:28:09.037Z,11.07
2023-04-03T05:30:36.147Z,11.27
2023-04-03T05:33:04.287Z,11.07
2023-04-03T05:38:13.012Z,11.32
2023-04-03T05:40:40.229Z,11.88
2023-04-03T05:43:07.653Z,11.80
2023-04-03T05:45:37.968Z,11.13
2023-04-03T05:48:05.441Z,12.23
2023-04-03T05:50:34.011Z,13.32
2023-04-03T05:53:03.419Z,13.23
2023-04-03T05:55:32.667Z,11.63
2023-04-03T05:58:00.016Z,13.02
2023-04-03T06:00:26.955Z,14.93
2023-04-03T06:03:01.253Z,14.60
2023-04-03T06:05:33.142Z,15.60
2023-04-03T06:08:00.180Z,14.32
2023-04-03T06:10:27.280Z,14.10
2023-04-03T06:12:54.147Z,14.77
2023-04-03T06:15:22.240Z,15.50
2023-04-03T06:17:49.365Z,15.98
2023-04-03T06:20:16.774Z,15.05
2023-04-03T06:22:43.909Z,14.68
2023-04-03T06:25:12.299Z,15.65
2023-04-03T06:27:39.591Z,14.95
2023-04-03T06:30:08.298Z,14.80
2023-04-03T06:32:35.322Z,16.15
2023-04-03T06:35:02.217Z,15.50
2023-04-03T06:37:33.424Z,14.82
2023-04-03T06:40:01.538Z,15.10
2023-04-03T06:42:28.595Z,15.20
2023-04-03T06:45:01.860Z,15.27
2023-04-03T06:47:29.048Z,15.82
2023-04-03T06:49:56.073Z,15.73
2023-04-03T06:52:23.139Z,16.13
2023-04-03T06:54:50.396Z,15.80
2023-04-03T06:57:17.437Z,16.10
2023-04-03T06:59:44.696Z,17.75
2023-04-03T07:02:14.253Z,23.70
2023-04-03T07:04:41.497Z,21.23
2023-04-03T07:07:08.798Z,18.52
2023-04-03T07:09:35.939Z,18.98
2023-04-03T07:12:02.938Z,18.58
2023-04-03T07:14:29.767Z,17.25
2023-04-03T07:16:56.698Z,17.10
2023-04-03T07:19:25.601Z,16.27
2023-04-03T07:21:52.546Z,16.23
2023-04-03T07:24:19.814Z,15.82
2023-04-03T07:40:16.605Z,16.90
2023-04-03T07:42:43.991Z,17.23
2023-04-03T07:45:11.727Z,18.52
2023-04-03T07:47:38.885Z,16.95
2023-04-03T07:50:06.352Z,18.17
2023-04-03T07:52:33.272Z,17.50
2023-04-03T07:55:00.228Z,17.70
2023-04-03T07:57:27.203Z,17.75
2023-04-03T07:59:54.536Z,16.50
2023-04-03T08:02:21.558Z,16.20
2023-04-03T08:04:48.531Z,16.63
2023-04-03T08:07:15.632Z,17.50
2023-04-03T08:09:42.752Z,16.90
2023-04-03T08:12:12.532Z,19.05
2023-04-03T08:14:39.397Z,18.00
2023-04-03T08:17:06.616Z,20.13
2023-04-03T08:19:33.524Z,16.80
2023-04-03T08:22:01.921Z,18.15
2023-04-03T08:24:28.837Z,16.23
2023-04-03T08:26:59.115Z,15.80
2023-04-03T08:29:26.408Z,16.38
2023-04-03T08:31:53.407Z,16.23
2023-04-03T08:34:21.194Z,16.73
2023-04-03T08:36:48.326Z,18.13
2023-04-03T08:39:15.584Z,18.08
2023-04-03T08:41:50.339Z,18.10
2023-04-03T08:44:44.190Z,17.88
2023-04-03T08:47:33.833Z,17.30
2023-04-03T08:50:23.474Z,17.55
2023-04-03T08:52:54.903Z,17.83
2023-04-03T08:55:45.388Z,18.02
2023-04-03T08:58:22.380Z,18.38
2023-04-03T09:01:05.493Z,18.27
2023-04-03T09:03:36.700Z,18.25
2023-04-03T09:06:26.721Z,17.52
2023-04-03T09:09:15.607Z,18.80
2023-04-03T09:11:48.669Z,17.77
2023-04-03T09:14:24.966Z,17.63
2023-04-03T09:16:59.144Z,17.67
2023-04-03T09:19:43.193Z,18.73
2023-04-03T09:22:27.648Z,18.15
2023-04-03T09:25:10.190Z,18.90
2023-04-03T09:27:37.476Z,17.85
2023-04-03T09:30:05.289Z,18.35
2023-04-03T09:32:36.293Z,18.25
2023-04-03T09:35:20.603Z,18.00
2023-04-03T09:37:55.717Z,17.75
2023-04-03T09:40:40.223Z,18.92
2023-04-03T09:43:40.053Z,17.45
2023-04-03T09:46:33.069Z,17.70
2023-04-03T09:49:09.699Z,17.52
2023-04-03T09:51:37.665Z,17.38
2023-04-03T09:54:32.538Z,18.20
2023-04-03T09:57:07.605Z,17.17
2023-04-03T09:59:34.887Z,17.08
2023-04-03T10:02:15.478Z,17.08
2023-04-03T10:04:43.451Z,17.02
2023-04-03T10:07:36.305Z,16.70
2023-04-03T10:10:26.616Z,16.95
2023-04-03T10:13:21.465Z,16.23
2023-04-03T10:16:07.981Z,16.38
2023-04-03T10:18:38.691Z,16.10
2023-04-03T10:21:27.207Z,15.50
2023-04-03T10:24:30.542Z,16.60
2023-04-03T10:27:05.700Z,15.32
2023-04-03T10:29:32.661Z,17.38
2023-04-03T10:32:32.366Z,16.15
2023-04-03T10:35:38.111Z,15.85
2023-04-03T10:38:23.469Z,16.33
2023-04-03T10:41:04.893Z,16.52
2023-04-03T10:43:48.821Z,15.50
2023-04-03T10:46:41.869Z,16.42
2023-04-03T10:49:28.393Z,16.55
2023-04-03T10:52:06.154Z,16.05
2023-04-03T10:55:11.802Z,15.82
2023-04-03T10:57:39.604Z,16.25
2023-04-03T11:00:19.510Z,15.93
2023-04-03T11:02:51.247Z,16.23
2023-04-03T11:05:43.179Z,15.90
2023-04-03T11:08:18.776Z,16.58
2023-04-03T11:10:52.069Z,16.30
2023-04-03T11:13:26.317Z,15.57
2023-04-03T11:15:56.460Z,15.45
2023-04-03T11:18:45.992Z,15.63
2023-04-03T11:21:21.281Z,16.60
2023-04-03T11:23:50.243Z,17.67
2023-04-03T11:26:26.679Z,16.13
2023-04-03T11:28:58.679Z,15.30
2023-04-03T11:31:59.524Z,16.98
2023-04-03T11:34:54.638Z,15.98
2023-04-03T11:37:35.060Z,17.52
2023-04-03T11:40:10.463Z,15.48
2023-04-03T11:42:43.983Z,15.77
2023-04-03T11:45:23.065Z,16.27
2023-04-03T11:47:54.179Z,15.43
2023-04-03T11:50:45.103Z,15.02
2023-04-03T11:53:15.039Z,15.65
2023-04-03T11:55:51.121Z,15.90
2023-04-03T11:58:24.336Z,15.20
2023-04-03T12:00:56.259Z,14.95
2023-04-03T12:03:30.459Z,15.43
2023-04-03T12:06:14.696Z,15.23
2023-04-03T12:08:42.335Z,15.25
2023-04-03T12:11:12.236Z,14.90
2023-04-03T12:13:51.281Z,14.88
2023-04-03T12:16:39.184Z,14.70
2023-04-03T12:19:09.114Z,14.38
2023-04-03T12:21:48.093Z,15.13
2023-04-03T12:24:37.149Z,14.85
2023-04-03T12:27:15.171Z,15.35
2023-04-03T12:29:53.260Z,14.63
2023-04-03T12:32:39.041Z,14.70
2023-04-03T12:35:18.162Z,15.70
2023-04-03T12:38:03.990Z,17.15
2023-04-03T12:40:43.206Z,17.27
2023-04-03T12:43:28.357Z,14.80
2023-04-03T12:46:04.580Z,18.38
2023-04-03T12:49:01.480Z,15.30
2023-04-03T12:51:43.248Z,14.52
2023-04-03T12:54:28.620Z,15.27
2023-04-03T12:57:22.523Z,14.38
2023-04-03T12:59:49.976Z,13.40
2023-04-03T13:02:35.187Z,14.43
2023-04-03T13:05:11.109Z,12.95
2023-04-03T13:07:42.050Z,13.60
2023-04-03T13:10:09.185Z,13.02
2023-04-03T13:12:59.489Z,14.32
2023-04-03T13:15:30.566Z,13.93
2023-04-03T13:17:57.978Z,13.65
2023-04-03T13:20:28.821Z,14.55
2023-04-03T13:23:04.836Z,13.85
2023-04-03T13:25:35.424Z,13.98
2023-04-03T13:28:13.330Z,14.23
2023-04-03T13:30:54.845Z,13.38
2023-04-03T13:33:28.928Z,12.45
2023-04-03T13:36:07.978Z,13.55
2023-04-03T13:38:37.475Z,13.77
2023-04-03T13:41:26.965Z,12.25
2023-04-03T13:44:00.574Z,12.35
2023-04-03T13:46:33.914Z,12.55
2023-04-03T13:49:20.115Z,16.50
2023-04-03T13:51:56.967Z,11.30
2023-04-03T13:54:33.731Z,11.00
2023-04-03T13:57:02.437Z,11.13
2023-04-03T13:59:37.194Z,10.95
2023-04-03T14:02:04.067Z,11.13
2023-04-03T14:04:57.340Z,9.95
2023-04-03T14:07:25.083Z,10.38
2023-04-03T14:09:52.165Z,10.55
2023-04-03T14:12:40.284Z,9.60
2023-04-03T14:15:29.365Z,9.75
2023-04-03T14:17:56.787Z,10.55
2023-04-03T14:20:28.012Z,8.70
2023-04-03T14:22:55.806Z,8.95
2023-04-03T14:25:26.741Z,10.95
2023-04-03T14:27:54.909Z,9.65
2023-04-03T14:30:30.475Z,8.32
2023-04-03T14:32:58.022Z,12.07
2023-04-03T14:35:25.746Z,11.65
2023-04-03T14:37:54.840Z,10.55
2023-04-03T14:40:27.662Z,11.38
2023-04-03T14:42:56.406Z,11.75
2023-04-03T14:45:24.201Z,9.27
2023-04-03T14:47:55.933Z,12.00
2023-04-03T14:50:28.098Z,9.82
2023-04-03T14:52:59.695Z,9.45
2023-04-03T14:55:27.205Z,11.10
2023-04-03T14:57:55.278Z,11.40
2023-04-03T15:00:24.135Z,10.60
2023-04-03T15:02:52.277Z,11.05
2023-04-03T15:05:20.781Z,11.70
2023-04-03T15:07:58.565Z,9.35
2023-04-03T15:10:29.428Z,8.00
2023-04-03T15:12:57.027Z,9.00
2023-04-03T15:15:25.168Z,12.45
2023-04-03T15:17:55.411Z,7.68
2023-04-03T15:20:25.950Z,11.02
2023-04-03T15:22:53.753Z,8.25
2023-04-03T15:25:20.819Z,8.77
2023-04-03T15:27:49.249Z,6.50
2023-04-03T15:30:19.540Z,7.50
2023-04-03T15:32:47.729Z,9.20
2023-04-03T15:35:15.626Z,13.18
2023-04-03T15:37:43.060Z,16.52
2023-04-03T15:40:10.696Z,7.97
2023-04-03T15:42:37.917Z,7.95
2023-04-03T15:45:05.180Z,7.35
2023-04-03T15:47:32.292Z,8.57
2023-04-03T15:49:59.985Z,9.45
2023-04-03T15:52:27.032Z,8.25
2023-04-03T15:54:53.978Z,8.27
2023-04-03T15:57:21.066Z,8.25
2023-04-03T15:59:48.116Z,10.32
2023-04-03T16:02:15.401Z,7.78
2023-04-03T16:04:42.480Z,9.38
2023-04-03T16:07:09.514Z,8.48
2023-04-03T16:09:37.183Z,8.52
2023-04-03T16:12:04.682Z,7.97
2023-04-03T16:14:31.800Z,8.38
2023-04-03T16:17:00.934Z,8.73
2023-04-03T16:19:28.137Z,8.65
2023-04-03T16:21:56.473Z,8.13
2023-04-03T16:24:23.686Z,8.90
2023-04-03T16:26:50.665Z,8.95
2023-04-03T16:29:17.784Z,8.90
2023-04-03T16:31:44.993Z,8.27
2023-04-03T16:34:12.818Z,8.80
2023-04-03T16:36:39.877Z,7.05
2023-04-03T16:39:10.774Z,8.07
2023-04-03T16:41:38.033Z,7.07
2023-04-03T16:44:05.100Z,8.20
2023-04-03T16:46:32.151Z,7.47
2023-04-03T16:48:59.192Z,8.45
2023-04-03T16:51:26.540Z,8.77
2023-04-03T16:53:53.739Z,10.32
2023-04-03T16:56:21.361Z,13.65
2023-04-03T16:58:49.799Z,9.30
2023-04-03T17:01:19.226Z,8.85
2023-04-03T17:03:46.539Z,9.10
2023-04-03T17:06:18.907Z,9.23
2023-04-03T17:08:48.568Z,10.57
2023-04-03T17:11:30.301Z,8.57
2023-04-03T17:13:57.450Z,8.40
2023-04-03T17:16:25.734Z,9.77
2023-04-03T17:18:54.223Z,10.40
2023-04-03T17:21:21.978Z,10.48
2023-04-03T17:23:55.533Z,10.60
2023-04-03T17:26:22.474Z,9.98
2023-04-03T17:28:49.496Z,10.80
2023-04-03T17:31:16.875Z,11.30
2023-04-03T17:33:44.011Z,10.73
2023-04-03T17:36:11.316Z,10.85
2023-04-03T17:38:38.311Z,13.30
2023-04-03T17:41:08.337Z,9.00
2023-04-03T17:43:36.277Z,9.50
2023-04-03T17:46:05.793Z,9.57
2023-04-03T17:48:34.443Z,8.55
2023-04-03T17:51:09.222Z,7.90
2023-04-03T17:53:36.318Z,7.55
2023-04-03T17:56:08.567Z,8.43
2023-04-03T17:58:36.223Z,9.90
2023-04-03T18:01:20.228Z,10.95
2023-04-03T18:03:48.855Z,8.32
2023-04-03T18:06:18.902Z,8.55
2023-04-03T18:08:51.922Z,7.85
2023-04-03T18:11:20.232Z,8.30
2023-04-03T18:13:47.334Z,8.73
2023-04-03T18:16:15.185Z,9.05
2023-04-03T18:18:42.163Z,8.43
2023-04-03T18:21:10.966Z,7.15
2023-04-03T18:23:41.739Z,7.95
2023-04-03T18:26:11.171Z,6.95
2023-04-03T18:28:40.189Z,8.98
2023-04-03T18:31:11.016Z,7.93
2023-04-03T18:33:38.183Z,7.57
2023-04-03T18:36:05.703Z,8.07
2023-04-03T18:38:32.700Z,13.50
2023-04-03T18:41:04.861Z,7.65
2023-04-03T18:43:32.183Z,8.27
2023-04-03T18:45:59.132Z,6.55
2023-04-03T18:48:26.126Z,6.43
2023-04-03T18:50:53.023Z,7.05
2023-04-03T18:53:19.952Z,6.97
2023-04-03T18:55:46.915Z,5.82
2023-04-03T18:58:13.886Z,6.80
2023-04-03T19:00:41.928Z,6.10
2023-04-03T19:03:10.936Z,7.15
2023-04-03T19:05:37.822Z,6.60
2023-04-03T19:08:05.192Z,6.20
2023-04-03T19:10:32.149Z,7.57
2023-04-03T19:12:59.304Z,5.53
2023-04-03T19:15:27.047Z,5.80
2023-04-03T19:17:54.118Z,5.97
2023-04-03T19:20:21.497Z,8.23
2023-04-03T19:22:48.567Z,6.93
2023-04-03T19:25:15.642Z,6.15
2023-04-03T19:27:42.712Z,6.53
2023-04-03T19:41:56.113Z,7.53
2023-04-03T19:44:23.086Z,6.78
2023-04-03T19:46:50.806Z,8.05
2023-04-03T19:49:19.605Z,6.85
2023-04-03T19:51:46.565Z,9.30
2023-04-03T19:54:13.781Z,7.25
2023-04-03T19:56:40.944Z,8.18
2023-04-03T19:59:07.914Z,7.10
2023-04-03T20:01:35.448Z,11.18
2023-04-03T20:04:02.989Z,7.15
2023-04-03T20:06:29.894Z,7.22
2023-04-03T20:08:57.047Z,8.00
2023-04-03T20:11:25.281Z,7.63
2023-04-03T20:13:54.223Z,6.20
2023-04-03T20:16:26.230Z,7.72
2023-04-03T20:18:57.242Z,8.20
2023-04-03T20:21:32.326Z,7.10
2023-04-03T20:24:00.785Z,7.57
2023-04-03T20:26:29.897Z,8.43
2023-04-03T20:28:58.902Z,7.60
2023-04-03T20:31:28.252Z,8.77
2023-04-03T20:33:55.287Z,7.18
2023-04-03T20:36:23.606Z,10.60
2023-04-03T20:38:52.387Z,8.38
2023-04-03T20:41:19.560Z,8.10
2023-04-03T20:43:47.965Z,7.13
2023-04-03T20:46:19.515Z,9.30
2023-04-03T20:48:48.223Z,10.65
2023-04-03T20:51:19.180Z,9.02
2023-04-03T20:53:47.597Z,9.48
2023-04-03T20:56:16.029Z,8.85
2023-04-03T20:58:46.418Z,8.95
2023-04-03T21:01:20.008Z,9.27
2023-04-03T21:03:48.967Z,11.53
2023-04-03T21:06:53.105Z,9.32
2023-04-03T21:09:57.150Z,10.40
2023-04-03T21:13:01.803Z,9.77
2023-04-03T21:15:47.572Z,11.48
2023-04-03T21:18:32.559Z,15.77
2023-04-03T21:21:01.437Z,10.43
2023-04-03T21:23:29.539Z,11.73
2023-04-03T21:25:57.828Z,14.13
2023-04-03T21:28:25.174Z,13.27
2023-04-03T21:30:52.400Z,11.32
2023-04-03T21:33:19.373Z,12.15
2023-04-03T21:35:46.465Z,13.57
2023-04-03T21:38:15.984Z,12.57
2023-04-03T21:40:46.789Z,14.18
2023-04-03T21:43:13.908Z,13.82
2023-04-03T21:45:40.985Z,16.20
2023-04-03T21:48:10.320Z,16.23
2023-04-03T21:50:37.456Z,13.38
2023-04-03T21:53:04.585Z,13.10
2023-04-03T21:55:31.613Z,10.35
2023-04-03T21:57:58.690Z,12.90
2023-04-03T22:00:25.759Z,13.23
2023-04-03T22:02:57.818Z,9.93
2023-04-03T22:05:36.148Z,12.88
2023-04-03T22:08:04.293Z,11.70
2023-04-03T22:10:31.817Z,11.50
2023-04-03T22:12:58.785Z,13.55
2023-04-03T22:15:26.248Z,12.68
2023-04-03T22:17:53.297Z,10.88
2023-04-03T22:20:20.832Z,10.82
2023-04-03T22:22:50.880Z,8.90
2023-04-03T22:25:17.835Z,9.00
2023-04-03T22:27:44.903Z,9.70
2023-04-03T22:30:12.397Z,9.38
2023-04-03T22:32:39.452Z,12.38
2023-04-03T22:35:07.120Z,11.23
2023-04-03T22:37:34.269Z,11.15
2023-04-03T22:40:01.726Z,8.27
2023-04-03T22:42:28.678Z,10.77
2023-04-03T22:44:55.710Z,10.13
2023-04-03T22:47:22.649Z,11.60
2023-04-03T22:49:49.598Z,11.35
2023-04-03T22:52:19.030Z,9.90
2023-04-03T22:54:46.154Z,9.10
2023-04-03T22:57:13.078Z,10.60
2023-04-03T22:59:39.947Z,11.93
2023-04-03T23:02:06.929Z,13.32
2023-04-03T23:04:34.054Z,9.07
2023-04-03T23:07:01.141Z,10.15
2023-04-03T23:09:28.604Z,11.85
2023-04-03T23:11:55.618Z,11.43
2023-04-03T23:14:22.913Z,9.80
2023-04-03T23:16:50.085Z,10.13
2023-04-03T23:19:17.981Z,7.65
2023-04-03T23:21:45.862Z,9.63
2023-04-03T23:24:13.069Z,8.30
2023-04-03T23:26:40.123Z,9.27
2023-04-03T23:29:07.933Z,10.15
2023-04-03T23:31:34.991Z,13.20
2023-04-03T23:34:01.989Z,8.82
2023-04-03T23:36:28.949Z,9.18
2023-04-03T23:38:59.151Z,12.18
2023-04-03T23:41:27.029Z,10.85
2023-04-03T23:43:54.113Z,10.20
2023-04-03T23:46:21.083Z,7.20
2023-04-03T23:48:48.172Z,7.50
2023-04-03T23:51:15.306Z,7.25
2023-04-03T23:53:42.244Z,7.55
2023-04-03T23:56:12.667Z,15.02
2023-04-03T23:58:39.685Z,6.10
